createdAt,value
2018-02-12T00:00:07.754Z,99.90
2018-02-12T00:01:11.944Z,99.90
2018-02-12T00:02:16.940Z,99.90
2018-02-12T00:03:21.187Z,99.90
2018-02-12T00:04:25.612Z,99.90
2018-02-12T00:05:29.860Z,99.90
2018-02-12T00:06:34.169Z,99.90
2018-02-12T00:07:38.364Z,99.90
2018-02-12T00:08:42.567Z,99.90
2018-02-12T00:09:46.777Z,99.90
2018-02-12T00:10:50.268Z,99.90
2018-02-12T00:11:55.826Z,99.90
2018-02-12T00:13:00.326Z,99.90
2018-02-12T00:14:05.341Z,99.90
2018-02-12T00:15:10.305Z,99.90
2018-02-12T00:16:14.516Z,99.90
2018-02-12T00:17:18.704Z,99.90
2018-02-12T00:18:22.884Z,99.90
2018-02-12T00:19:31.319Z,99.90
2018-02-12T00:20:35.565Z,99.90
2018-02-12T00:21:39.735Z,99.90
2018-02-12T00:22:44.698Z,99.90
2018-02-12T00:23:48.896Z,99.90
2018-02-12T00:24:53.530Z,99.90
2018-02-12T00:25:57.863Z,99.90
2018-02-12T00:27:02.091Z,99.90
2018-02-12T00:28:06.305Z,99.90
2018-02-12T00:29:10.487Z,99.90
2018-02-12T00:30:15.072Z,99.90
2018-02-12T00:31:19.266Z,99.90
2018-02-12T00:32:23.475Z,99.90
2018-02-12T00:33:27.769Z,99.90
2018-02-12T00:34:32.106Z,99.90
2018-02-12T00:35:36.351Z,99.90
2018-02-12T00:36:40.557Z,99.90
2018-02-12T00:37:44.742Z,99.90
2018-02-12T00:38:49.703Z,99.90
2018-02-12T00:39:54.495Z,99.90
2018-02-12T00:40:59.296Z,99.90
2018-02-12T00:42:03.581Z,99.90
2018-02-12T00:43:08.613Z,99.90
2018-02-12T00:44:12.887Z,99.90
2018-02-12T00:45:17.091Z,99.90
2018-02-12T00:46:21.272Z,99.90
2018-02-12T00:47:26.268Z,99.90
2018-02-12T00:48:30.549Z,99.90
2018-02-12T00:49:34.788Z,99.90
2018-02-12T00:50:39.049Z,99.90
2018-02-12T00:51:44.021Z,99.90
2018-02-12T00:52:48.208Z,99.90
2018-02-12T00:53:52.890Z,99.90
2018-02-12T00:54:57.106Z,99.90
2018-02-12T00:56:01.344Z,99.90
2018-02-12T00:57:05.662Z,99.90
2018-02-12T00:58:09.873Z,99.90
2018-02-12T00:59:14.133Z,99.90
2018-02-12T01:00:18.307Z,99.90
2018-02-12T01:01:22.648Z,99.90
2018-02-12T01:02:27.055Z,99.90
2018-02-12T01:03:31.276Z,99.90
2018-02-12T01:04:35.548Z,99.90
2018-02-12T01:05:39.782Z,99.90
2018-02-12T01:06:43.969Z,99.90
2018-02-12T01:07:48.151Z,99.90
2018-02-12T01:08:53.548Z,99.90
2018-02-12T01:09:58.103Z,99.90
2018-02-12T01:11:03.093Z,99.90
2018-02-12T01:12:07.315Z,99.90
2018-02-12T01:13:11.518Z,99.90
2018-02-12T01:14:15.774Z,99.90
2018-02-12T01:15:20.917Z,99.90
2018-02-12T01:16:26.165Z,99.90
2018-02-12T01:17:30.451Z,99.90
2018-02-12T01:18:35.435Z,99.90
2018-02-12T01:19:39.658Z,99.90
2018-02-12T01:20:43.850Z,99.90
2018-02-12T01:21:48.061Z,99.90
2018-02-12T01:22:52.269Z,99.90
2018-02-12T01:23:56.875Z,99.90
2018-02-12T01:25:01.294Z,99.90
2018-02-12T01:26:05.554Z,99.90
2018-02-12T01:27:09.774Z,99.90
2018-02-12T01:28:13.973Z,99.90
2018-02-12T01:29:18.189Z,99.90
2018-02-12T01:30:22.404Z,99.90
2018-02-12T01:31:26.716Z,99.90
2018-02-12T01:32:30.953Z,99.90
2018-02-12T01:33:35.151Z,99.90
2018-02-12T01:34:40.100Z,99.90
2018-02-12T01:35:44.295Z,99.90
2018-02-12T01:36:49.236Z,99.90
2018-02-12T01:37:53.459Z,99.90
2018-02-12T01:38:57.909Z,99.90
2018-02-12T01:40:02.182Z,99.90
2018-02-12T01:41:06.381Z,99.90
2018-02-12T01:42:10.592Z,99.90
2018-02-12T01:43:14.787Z,99.90
2018-02-12T01:44:19.751Z,99.90
2018-02-12T01:45:24.785Z,99.90
2018-02-12T01:46:29.124Z,99.90
2018-02-12T01:47:33.394Z,99.90
2018-02-12T01:48:38.343Z,99.90
2018-02-12T01:49:42.586Z,99.90
2018-02-12T01:50:46.822Z,99.90
2018-02-12T01:51:51.759Z,99.90
2018-02-12T01:52:57.244Z,99.90
2018-02-12T01:54:01.480Z,99.90
2018-02-12T01:55:05.691Z,99.90
2018-02-12T01:56:11.411Z,99.90
2018-02-12T01:57:15.621Z,99.90
2018-02-12T01:58:19.787Z,99.90
2018-02-12T01:59:24.806Z,99.90
2018-02-12T02:00:29.321Z,99.90
2018-02-12T02:01:34.316Z,99.90
2018-02-12T02:02:38.522Z,99.90
2018-02-12T02:03:42.718Z,99.90
2018-02-12T02:04:46.975Z,99.90
2018-02-12T02:05:51.156Z,99.90
2018-02-12T02:06:55.396Z,99.90
2018-02-12T02:08:00.512Z,99.90
2018-02-12T02:09:04.864Z,99.90
2018-02-12T02:10:09.836Z,99.90
2018-02-12T02:11:14.019Z,99.90
2018-02-12T02:12:18.200Z,99.90
2018-02-12T02:13:23.156Z,99.90
2018-02-12T02:14:27.391Z,99.90
2018-02-12T02:15:31.610Z,99.90
2018-02-12T02:16:35.807Z,99.90
2018-02-12T02:17:39.983Z,99.90
2018-02-12T02:18:44.970Z,99.90
2018-02-12T02:19:49.254Z,99.90
2018-02-12T02:20:53.459Z,99.90
2018-02-12T02:21:58.316Z,99.90
2018-02-12T02:23:02.727Z,99.90
2018-02-12T02:24:06.923Z,99.90
2018-02-12T02:25:11.114Z,99.90
2018-02-12T02:26:15.363Z,99.90
2018-02-12T02:27:19.539Z,99.90
2018-02-12T02:28:23.870Z,99.90
2018-02-12T02:29:29.727Z,99.90
2018-02-12T02:30:34.003Z,99.90
2018-02-12T02:31:38.246Z,99.90
2018-02-12T02:32:42.459Z,99.90
2018-02-12T02:33:46.668Z,99.90
2018-02-12T02:34:50.859Z,99.90
2018-02-12T02:35:55.338Z,99.90
2018-02-12T02:36:59.667Z,99.90
2018-02-12T02:38:04.144Z,99.90
2018-02-12T02:39:08.361Z,99.90
2018-02-12T02:40:12.561Z,99.90
2018-02-12T02:41:16.739Z,99.90
2018-02-12T02:42:21.036Z,99.90
2018-02-12T02:43:25.471Z,99.90
2018-02-12T02:44:30.396Z,99.90
2018-02-12T02:45:34.656Z,99.90
2018-02-12T02:46:38.896Z,99.90
2018-02-12T02:47:43.130Z,99.90
2018-02-12T02:48:47.308Z,99.90
2018-02-12T02:49:52.303Z,99.90
2018-02-12T02:50:58.111Z,99.90
2018-02-12T02:52:02.353Z,99.90
2018-02-12T02:53:06.919Z,99.90
2018-02-12T02:54:11.876Z,99.90
2018-02-12T02:55:16.068Z,99.90
2018-02-12T02:56:20.277Z,99.90
2018-02-12T02:57:24.549Z,99.90
2018-02-12T02:58:28.923Z,99.90
2018-02-12T02:59:33.161Z,99.90
2018-02-12T03:00:38.898Z,99.90
2018-02-12T03:01:43.158Z,99.90
2018-02-12T03:02:48.146Z,99.90
2018-02-12T03:03:52.374Z,99.90
2018-02-12T03:04:56.666Z,99.90
2018-02-12T03:06:01.136Z,99.90
2018-02-12T03:07:05.740Z,99.90
2018-02-12T03:08:09.911Z,99.90
2018-02-12T03:09:14.098Z,99.90
2018-02-12T03:10:18.298Z,99.90
2018-02-12T03:11:22.511Z,99.90
2018-02-12T03:12:27.030Z,99.90
2018-02-12T03:13:31.558Z,99.90
2018-02-12T03:14:35.816Z,99.90
2018-02-12T03:15:40.031Z,99.90
2018-02-12T03:16:44.254Z,99.90
2018-02-12T03:17:49.211Z,99.90
2018-02-12T03:18:53.464Z,99.90
2018-02-12T03:19:57.969Z,99.90
2018-02-12T03:21:02.219Z,99.90
2018-02-12T03:22:07.210Z,99.90
2018-02-12T03:23:12.032Z,99.90
2018-02-12T03:24:16.243Z,99.90
2018-02-12T03:25:20.478Z,99.90
2018-02-12T03:26:24.760Z,99.90
2018-02-12T03:27:29.017Z,99.90
2018-02-12T03:28:33.263Z,99.90
2018-02-12T03:29:37.453Z,99.90
2018-02-12T03:30:42.452Z,99.90
2018-02-12T03:31:46.642Z,99.90
2018-02-12T03:32:50.837Z,99.90
2018-02-12T03:33:55.383Z,99.90
2018-02-12T03:34:59.699Z,99.90
2018-02-12T03:36:03.972Z,99.90
2018-02-12T03:37:08.576Z,99.90
2018-02-12T03:38:13.523Z,99.90
2018-02-12T03:39:17.694Z,99.90
2018-02-12T03:40:22.658Z,99.90
2018-02-12T03:41:28.559Z,99.90
2018-02-12T03:42:32.906Z,99.90
2018-02-12T03:43:37.095Z,99.90
2018-02-12T03:44:42.076Z,99.90
2018-02-12T03:45:46.769Z,99.90
2018-02-12T03:46:50.956Z,99.90
2018-02-12T03:47:55.400Z,99.90
2018-02-12T03:48:59.667Z,99.90
2018-02-12T03:50:03.948Z,99.90
2018-02-12T03:51:08.190Z,99.90
2018-02-12T03:52:12.382Z,99.90
2018-02-12T03:53:16.968Z,99.90
2018-02-12T03:54:21.143Z,99.90
2018-02-12T03:55:25.868Z,99.90
2018-02-12T03:56:30.152Z,99.90
2018-02-12T03:57:34.598Z,99.90
2018-02-12T03:58:38.852Z,99.90
2018-02-12T03:59:43.039Z,99.90
2018-02-12T04:00:47.266Z,99.90
2018-02-12T04:01:52.183Z,99.90
2018-02-12T04:02:58.009Z,99.90
2018-02-12T04:04:02.747Z,99.90
2018-02-12T04:05:07.934Z,99.90
2018-02-12T04:06:12.130Z,99.90
2018-02-12T04:07:16.306Z,99.90
2018-02-12T04:08:20.490Z,99.90
2018-02-12T04:09:25.230Z,99.90
2018-02-12T04:10:29.870Z,99.90
2018-02-12T04:11:34.094Z,99.90
2018-02-12T04:12:38.305Z,99.90
2018-02-12T04:13:42.483Z,99.90
2018-02-12T04:14:57.589Z,99.90
2018-02-12T04:16:01.796Z,99.90
2018-02-12T04:17:06.093Z,99.90
2018-02-12T04:18:10.270Z,99.90
2018-02-12T04:19:15.230Z,99.90
2018-02-12T04:20:19.459Z,99.90
2018-02-12T04:21:23.795Z,99.90
2018-02-12T04:22:28.246Z,99.90
2018-02-12T04:23:33.384Z,99.90
2018-02-12T04:24:37.590Z,99.90
2018-02-12T04:25:42.621Z,99.90
2018-02-12T04:26:47.590Z,99.90
2018-02-12T04:27:51.801Z,99.90
2018-02-12T04:28:56.663Z,99.90
2018-02-12T04:30:01.127Z,99.90
2018-02-12T04:31:06.025Z,99.90
2018-02-12T04:32:10.230Z,99.90
2018-02-12T04:33:14.562Z,99.90
2018-02-12T04:34:18.735Z,99.90
2018-02-12T04:35:22.925Z,99.90
2018-02-12T04:36:28.342Z,99.90
2018-02-12T04:37:32.583Z,99.90
2018-02-12T04:38:36.843Z,99.90
2018-02-12T04:39:41.795Z,99.90
2018-02-12T04:40:45.980Z,99.90
2018-02-12T04:41:50.997Z,99.90
2018-02-12T04:42:55.940Z,99.90
2018-02-12T04:44:00.410Z,99.90
2018-02-12T04:45:04.793Z,99.90
2018-02-12T04:46:08.992Z,99.90
2018-02-12T04:47:13.170Z,99.90
2018-02-12T04:48:17.424Z,99.90
2018-02-12T04:49:21.611Z,99.90
2018-02-12T04:50:26.978Z,99.90
2018-02-12T04:51:32.185Z,99.90
2018-02-12T04:52:36.448Z,99.90
2018-02-12T04:53:40.725Z,99.90
2018-02-12T04:54:44.998Z,99.90
2018-02-12T04:55:49.979Z,99.90
2018-02-12T04:56:54.245Z,99.90
2018-02-12T04:57:58.893Z,99.90
2018-02-12T04:59:04.433Z,99.90
2018-02-12T05:00:08.656Z,99.90
2018-02-12T05:01:12.851Z,99.90
2018-02-12T05:02:17.181Z,99.90
2018-02-12T05:03:21.379Z,99.90
2018-02-12T05:04:25.890Z,99.90
2018-02-12T05:05:30.302Z,99.90
2018-02-12T05:06:34.919Z,99.90
2018-02-12T05:07:39.178Z,99.90
2018-02-12T05:08:43.363Z,99.90
2018-02-12T05:09:47.584Z,99.90
2018-02-12T05:10:51.886Z,99.90
2018-02-12T05:11:56.204Z,99.90
2018-02-12T05:13:00.477Z,99.90
2018-02-12T05:14:04.661Z,99.90
2018-02-12T05:15:08.862Z,99.90
2018-02-12T05:16:13.061Z,99.90
2018-02-12T05:17:17.244Z,99.90
2018-02-12T05:18:21.428Z,99.90
2018-02-12T05:19:25.630Z,99.90
2018-02-12T05:20:30.687Z,99.90
2018-02-12T05:21:35.630Z,99.90
2018-02-12T05:22:39.836Z,99.90
2018-02-12T05:23:44.036Z,99.90
2018-02-12T05:24:49.022Z,99.90
2018-02-12T05:25:53.485Z,99.90
2018-02-12T05:26:57.961Z,99.90
2018-02-12T05:28:02.376Z,99.90
2018-02-12T05:29:06.578Z,99.90
2018-02-12T05:30:10.757Z,99.90
2018-02-12T05:31:15.023Z,99.90
2018-02-12T05:32:19.209Z,99.90
2018-02-12T05:33:23.906Z,99.90
2018-02-12T05:34:28.512Z,99.90
2018-02-12T05:35:32.816Z,99.90
2018-02-12T05:36:37.247Z,99.90
2018-02-12T05:37:41.446Z,99.90
2018-02-12T05:38:45.655Z,99.90
2018-02-12T05:39:49.856Z,99.90
2018-02-12T05:40:55.087Z,99.90
2018-02-12T05:41:59.648Z,99.90
2018-02-12T05:43:03.961Z,99.90
2018-02-12T05:44:08.194Z,99.90
2018-02-12T05:45:12.464Z,99.90
2018-02-12T05:46:16.668Z,99.90
2018-02-12T05:47:20.986Z,99.90
2018-02-12T05:48:25.281Z,99.90
2018-02-12T05:49:29.772Z,99.90
2018-02-12T05:50:34.906Z,99.90
2018-02-12T05:51:39.131Z,99.90
2018-02-12T05:52:44.086Z,99.90
2018-02-12T05:53:48.262Z,99.90
2018-02-12T05:54:52.463Z,99.90
2018-02-12T05:55:57.526Z,99.90
2018-02-12T05:57:01.827Z,99.90
2018-02-12T05:58:06.870Z,99.90
2018-02-12T05:59:11.081Z,99.90
2018-02-12T06:00:15.280Z,99.90
2018-02-12T06:01:20.228Z,99.90
2018-02-12T06:02:24.942Z,99.90
2018-02-12T06:03:29.673Z,99.90
2018-02-12T06:04:34.149Z,99.90
2018-02-12T06:05:39.126Z,99.90
2018-02-12T06:06:43.320Z,99.90
2018-02-12T06:07:48.349Z,99.90
2018-02-12T06:08:52.530Z,99.90
2018-02-12T06:09:58.156Z,99.90
2018-02-12T06:11:02.407Z,99.90
2018-02-12T06:12:06.594Z,99.90
2018-02-12T06:13:10.820Z,99.90
2018-02-12T06:14:15.759Z,99.90
2018-02-12T06:15:20.745Z,99.90
2018-02-12T06:16:25.821Z,99.90
2018-02-12T06:17:30.077Z,99.90
2018-02-12T06:18:34.344Z,99.90
2018-02-12T06:19:38.559Z,99.90
2018-02-12T06:20:43.585Z,99.90
2018-02-12T06:21:48.564Z,99.90
2018-02-12T06:22:52.748Z,99.90
2018-02-12T06:23:57.201Z,99.90
2018-02-12T06:25:02.285Z,99.90
2018-02-12T06:26:06.501Z,99.90
2018-02-12T06:27:10.746Z,99.90
2018-02-12T06:28:14.956Z,99.90
2018-02-12T06:29:19.187Z,99.90
2018-02-12T06:30:23.614Z,99.90
2018-02-12T06:31:28.015Z,99.90
2018-02-12T06:32:33.453Z,99.90
2018-02-12T06:33:37.649Z,99.90
2018-02-12T06:34:41.883Z,99.90
2018-02-12T06:35:46.098Z,99.90
2018-02-12T06:36:50.276Z,99.90
2018-02-12T06:37:54.671Z,99.90
2018-02-12T06:38:59.814Z,99.90
2018-02-12T06:40:04.188Z,99.90
2018-02-12T06:41:08.399Z,99.90
2018-02-12T06:42:13.339Z,99.90
2018-02-12T06:43:17.511Z,99.90
2018-02-12T06:44:21.710Z,99.90
2018-02-12T06:45:26.156Z,99.90
2018-02-12T06:46:30.491Z,99.90
2018-02-12T06:47:34.928Z,99.90
2018-02-12T06:48:39.128Z,99.90
2018-02-12T06:49:43.337Z,99.90
2018-02-12T06:50:47.955Z,99.90
2018-02-12T06:51:52.144Z,99.90
2018-02-12T06:52:58.031Z,99.90
2018-02-12T06:54:02.260Z,99.90
2018-02-12T06:55:06.481Z,99.90
2018-02-12T06:56:10.746Z,99.90
2018-02-12T06:57:14.920Z,99.90
2018-02-12T06:58:19.244Z,99.90
2018-02-12T06:59:24.283Z,99.90
2018-02-12T07:00:29.264Z,99.90
2018-02-12T07:01:35.065Z,99.90
2018-02-12T07:02:39.239Z,99.90
2018-02-12T07:03:43.407Z,99.90
2018-02-12T07:04:47.747Z,99.90
2018-02-12T07:05:51.943Z,99.90
2018-02-12T07:06:56.265Z,99.90
2018-02-12T07:08:00.596Z,99.90
2018-02-12T07:09:05.632Z,99.90
2018-02-12T07:10:09.988Z,99.90
2018-02-12T07:11:14.227Z,99.90
2018-02-12T07:12:18.488Z,99.90
2018-02-12T07:13:23.673Z,99.90
2018-02-12T07:14:28.734Z,99.90
2018-02-12T07:15:34.525Z,99.90
2018-02-12T07:16:38.712Z,99.90
2018-02-12T07:17:43.668Z,99.90
2018-02-12T07:18:47.877Z,99.90
2018-02-12T07:19:52.081Z,99.90
2018-02-12T07:20:57.318Z,99.90
2018-02-12T07:22:01.558Z,99.90
2018-02-12T07:23:05.819Z,99.90
2018-02-12T07:24:10.783Z,99.90
2018-02-12T07:25:14.962Z,99.90
2018-02-12T07:26:19.975Z,99.90
2018-02-12T07:27:24.383Z,99.90
2018-02-12T07:28:29.754Z,99.90
2018-02-12T07:29:34.280Z,99.90
2018-02-12T07:30:38.475Z,99.90
2018-02-12T07:31:43.450Z,99.90
2018-02-12T07:32:47.671Z,99.90
2018-02-12T07:33:51.928Z,99.90
2018-02-12T07:34:56.579Z,99.90
2018-02-12T07:36:01.111Z,99.90
2018-02-12T07:37:05.355Z,99.90
2018-02-12T07:38:10.321Z,99.90
2018-02-12T07:39:14.548Z,99.90
2018-02-12T07:40:18.715Z,99.90
2018-02-12T07:41:22.934Z,99.90
2018-02-12T07:42:28.154Z,99.90
2018-02-12T07:43:32.403Z,99.90
2018-02-12T07:44:36.699Z,99.90
2018-02-12T07:45:41.639Z,99.90
2018-02-12T07:46:45.809Z,99.90
2018-02-12T07:47:49.988Z,99.90
2018-02-12T07:48:54.362Z,99.90
2018-02-12T07:49:58.705Z,99.90
2018-02-12T07:51:03.033Z,99.90
2018-02-12T07:52:07.211Z,99.90
2018-02-12T07:53:11.425Z,99.90
2018-02-12T07:54:16.050Z,99.90
2018-02-12T07:55:20.358Z,99.90
2018-02-12T07:56:24.644Z,99.90
2018-02-12T07:57:28.933Z,99.90
2018-02-12T07:58:33.211Z,99.90
2018-02-12T07:59:37.898Z,99.90
2018-02-12T08:00:42.868Z,99.90
2018-02-12T08:01:47.063Z,99.90
2018-02-12T08:02:51.260Z,99.90
2018-02-12T08:03:55.510Z,99.90
2018-02-12T08:04:59.795Z,99.90
2018-02-12T08:06:04.049Z,99.90
2018-02-12T08:07:08.326Z,99.90
2018-02-12T08:08:12.593Z,99.90
2018-02-12T08:09:17.572Z,99.90
2018-02-12T08:10:21.795Z,99.90
2018-02-12T08:11:26.813Z,99.90
2018-02-12T08:12:32.334Z,99.90
2018-02-12T08:13:36.617Z,99.90
2018-02-12T08:14:41.558Z,99.90
2018-02-12T08:15:46.572Z,99.90
2018-02-12T08:16:50.738Z,99.90
2018-02-12T08:17:55.112Z,99.90
2018-02-12T08:19:00.097Z,99.90
2018-02-12T08:20:05.170Z,99.90
2018-02-12T08:21:10.164Z,99.90
2018-02-12T08:22:14.360Z,99.90
2018-02-12T08:23:18.581Z,99.90
2018-02-12T08:24:22.795Z,99.90
2018-02-12T08:25:27.594Z,99.90
2018-02-12T08:26:32.004Z,99.90
2018-02-12T08:27:36.232Z,99.90
2018-02-12T08:28:40.414Z,99.90
2018-02-12T08:29:44.598Z,99.90
2018-02-12T08:30:49.606Z,99.90
2018-02-12T08:31:53.932Z,99.90
2018-02-12T08:32:58.996Z,99.90
2018-02-12T08:34:03.292Z,99.90
2018-02-12T08:35:07.500Z,99.90
2018-02-12T08:36:12.469Z,99.90
2018-02-12T08:37:16.662Z,99.90
2018-02-12T08:38:20.880Z,99.90
2018-02-12T08:39:25.543Z,99.90
2018-02-12T08:40:29.844Z,99.90
2018-02-12T08:41:34.406Z,99.90
2018-02-12T08:42:38.592Z,99.90
2018-02-12T08:43:42.849Z,99.90
2018-02-12T08:44:47.031Z,99.90
2018-02-12T08:45:52.033Z,99.90
2018-02-12T08:46:58.792Z,99.90
2018-02-12T08:48:03.247Z,99.90
2018-02-12T08:49:08.300Z,99.90
2018-02-12T08:50:12.505Z,99.90
2018-02-12T08:51:16.684Z,99.90
2018-02-12T08:52:20.874Z,99.90
2018-02-12T08:53:25.303Z,99.90
2018-02-12T08:54:29.965Z,99.90
2018-02-12T08:55:34.350Z,99.90
2018-02-12T08:56:39.336Z,99.90
2018-02-12T08:57:43.516Z,99.90
2018-02-12T08:58:47.719Z,99.90
2018-02-12T08:59:52.363Z,99.90
2018-02-12T09:00:56.797Z,99.90
2018-02-12T09:02:01.041Z,99.90
2018-02-12T09:03:05.462Z,99.90
2018-02-12T09:04:10.421Z,99.90
2018-02-12T09:05:14.805Z,99.90
2018-02-12T09:06:19.781Z,99.90
2018-02-12T09:07:24.367Z,99.90
2018-02-12T09:08:28.804Z,99.90
2018-02-12T09:09:33.583Z,99.90
2018-02-12T09:10:39.115Z,99.90
2018-02-12T09:11:43.291Z,99.90
2018-02-12T09:12:47.465Z,99.90
2018-02-12T09:13:52.436Z,99.90
2018-02-12T09:14:56.931Z,99.90
2018-02-12T09:16:01.286Z,99.90
2018-02-12T09:17:05.492Z,99.90
2018-02-12T09:18:09.667Z,99.90
2018-02-12T09:19:13.839Z,99.90
2018-02-12T09:20:18.049Z,99.90
2018-02-12T09:21:22.282Z,99.90
2018-02-12T09:22:27.366Z,99.90
2018-02-12T09:23:31.735Z,99.90
2018-02-12T09:24:36.062Z,99.90
2018-02-12T09:25:40.281Z,99.90
2018-02-12T09:26:44.645Z,99.90
2018-02-12T09:27:48.852Z,99.90
2018-02-12T09:28:53.052Z,99.90
2018-02-12T09:29:58.338Z,99.90
2018-02-12T09:31:02.841Z,99.90
2018-02-12T09:32:07.862Z,99.90
2018-02-12T09:33:12.846Z,99.90
2018-02-12T09:34:17.020Z,99.90
2018-02-12T09:35:21.187Z,99.90
2018-02-12T09:36:25.699Z,99.90
2018-02-12T09:37:30.066Z,99.90
2018-02-12T09:38:34.854Z,99.90
2018-02-12T09:39:39.929Z,99.90
2018-02-12T09:40:44.104Z,99.90
2018-02-12T09:41:49.082Z,99.90
2018-02-12T09:42:53.568Z,99.90
2018-02-12T09:43:57.976Z,99.90
2018-02-12T09:45:02.965Z,99.90
2018-02-12T09:46:07.192Z,99.90
2018-02-12T09:47:11.378Z,99.90
2018-02-12T09:48:15.956Z,99.90
2018-02-12T09:49:20.126Z,99.90
2018-02-12T09:50:24.359Z,99.90
2018-02-12T09:51:29.428Z,99.90
2018-02-12T09:52:33.666Z,99.90
2018-02-12T09:53:37.930Z,99.90
2018-02-12T09:54:42.108Z,99.90
2018-02-12T09:55:46.284Z,99.90
2018-02-12T09:56:50.449Z,99.90
2018-02-12T09:57:55.520Z,99.90
2018-02-12T09:59:00.144Z,99.90
2018-02-12T10:00:04.421Z,99.90
2018-02-12T10:01:08.721Z,99.90
2018-02-12T10:02:13.699Z,99.90
2018-02-12T10:03:17.927Z,99.90
2018-02-12T10:04:22.146Z,99.90
2018-02-12T10:05:26.494Z,99.90
2018-02-12T10:06:30.895Z,99.90
2018-02-12T10:07:36.151Z,99.90
2018-02-12T10:08:40.343Z,99.90
2018-02-12T10:09:45.722Z,99.90
2018-02-12T10:10:49.950Z,99.90
2018-02-12T10:11:54.532Z,99.90
2018-02-12T10:12:58.936Z,99.90
2018-02-12T10:14:03.135Z,99.90
2018-02-12T10:15:08.150Z,99.90
2018-02-12T10:16:13.841Z,99.90
2018-02-12T10:17:18.011Z,99.90
2018-02-12T10:18:22.200Z,99.90
2018-02-12T10:19:26.573Z,99.40
2018-02-12T10:20:30.842Z,99.50
2018-02-12T10:21:35.098Z,99.20
2018-02-12T10:22:39.313Z,99.10
2018-02-12T10:23:43.590Z,98.70
2018-02-12T10:24:48.562Z,97.70
2018-02-12T10:25:52.856Z,97.70
2018-02-12T10:26:57.159Z,97.70
2018-02-12T10:28:01.491Z,97.50
2018-02-12T10:29:05.955Z,97.50
2018-02-12T10:30:10.162Z,97.30
2018-02-12T10:31:14.915Z,97.60
2018-02-12T10:32:19.910Z,97.20
2018-02-12T10:33:24.700Z,97.20
2018-02-12T10:34:29.498Z,97.50
2018-02-12T10:35:34.722Z,97.00
2018-02-12T10:36:40.068Z,96.80
2018-02-12T10:37:44.999Z,96.90
2018-02-12T10:38:49.217Z,96.90
2018-02-12T10:39:53.682Z,96.10
2018-02-12T10:40:58.981Z,96.00
2018-02-12T10:42:03.386Z,95.80
2018-02-12T10:43:07.732Z,95.50
2018-02-12T10:44:11.962Z,95.00
2018-02-12T10:45:16.150Z,94.80
2018-02-12T10:46:20.330Z,94.50
2018-02-12T10:47:24.576Z,94.90
2018-02-12T10:48:29.268Z,95.10
2018-02-12T10:49:33.883Z,94.80
2018-02-12T10:50:38.114Z,94.30
2018-02-12T10:51:42.282Z,93.90
2018-02-12T10:52:46.456Z,93.80
2018-02-12T10:53:50.701Z,93.80
2018-02-12T10:54:55.170Z,93.80
2018-02-12T10:55:59.561Z,93.70
2018-02-12T10:57:03.750Z,93.40
2018-02-12T10:58:08.745Z,93.00
2018-02-12T10:59:12.951Z,92.90
2018-02-12T11:00:17.555Z,92.70
2018-02-12T11:01:21.748Z,92.80
2018-02-12T11:02:26.456Z,92.70
2018-02-12T11:03:31.082Z,93.00
2018-02-12T11:04:35.393Z,93.60
2018-02-12T11:05:40.351Z,93.00
2018-02-12T11:06:44.558Z,93.00
2018-02-12T11:07:48.743Z,92.60
2018-02-12T11:08:52.910Z,92.10
2018-02-12T11:09:57.290Z,92.30
2018-02-12T11:11:02.595Z,92.30
2018-02-12T11:12:06.902Z,92.30
2018-02-12T11:13:11.854Z,92.50
2018-02-12T11:14:16.135Z,92.50
2018-02-12T11:15:20.329Z,92.40
2018-02-12T11:16:24.677Z,92.30
2018-02-12T11:17:28.987Z,92.00
2018-02-12T11:18:33.294Z,91.70
2018-02-12T11:19:37.521Z,91.70
2018-02-12T11:20:41.711Z,92.10
2018-02-12T11:21:46.708Z,91.40
2018-02-12T11:22:50.927Z,91.40
2018-02-12T11:23:55.827Z,90.50
2018-02-12T11:25:00.378Z,90.10
2018-02-12T11:26:04.704Z,90.50
2018-02-12T11:27:09.680Z,90.70
2018-02-12T11:28:14.300Z,90.70
2018-02-12T11:29:18.501Z,90.60
2018-02-12T11:30:22.690Z,90.40
2018-02-12T11:31:28.036Z,90.40
2018-02-12T11:32:32.745Z,90.40
2018-02-12T11:33:37.805Z,90.10
2018-02-12T11:34:42.028Z,90.10
2018-02-12T11:35:46.245Z,90.40
2018-02-12T11:36:50.402Z,90.20
2018-02-12T11:37:56.167Z,88.70
2018-02-12T11:39:00.498Z,88.70
2018-02-12T11:40:04.892Z,87.10
2018-02-12T11:41:09.111Z,88.10
2018-02-12T11:42:13.280Z,87.40
2018-02-12T11:43:17.512Z,88.10
2018-02-12T11:44:21.682Z,88.10
2018-02-12T11:45:26.636Z,86.10
2018-02-12T11:46:30.927Z,85.20
2018-02-12T11:47:35.377Z,86.20
2018-02-12T11:48:40.368Z,87.50
2018-02-12T11:49:44.539Z,87.30
2018-02-12T11:50:48.722Z,86.60
2018-02-12T11:51:52.948Z,84.10
2018-02-12T11:52:57.423Z,84.60
2018-02-12T11:54:01.979Z,84.10
2018-02-12T11:55:06.989Z,83.60
2018-02-12T11:56:11.573Z,83.00
2018-02-12T11:57:15.764Z,83.20
2018-02-12T11:58:19.966Z,84.90
2018-02-12T11:59:24.465Z,85.30
2018-02-12T12:00:28.781Z,84.90
2018-02-12T12:01:33.057Z,85.20
2018-02-12T12:02:37.400Z,83.60
2018-02-12T12:03:42.346Z,85.10
2018-02-12T12:04:46.545Z,85.10
2018-02-12T12:05:51.530Z,83.20
2018-02-12T12:06:56.722Z,83.20
2018-02-12T12:08:01.497Z,83.40
2018-02-12T12:09:05.846Z,84.60
2018-02-12T12:10:10.826Z,81.60
2018-02-12T12:11:15.011Z,81.60
2018-02-12T12:12:19.260Z,81.30
2018-02-12T12:13:23.505Z,81.50
2018-02-12T12:14:28.161Z,81.70
2018-02-12T12:15:33.341Z,82.70
2018-02-12T12:16:38.351Z,82.50
2018-02-12T12:17:42.589Z,82.40
2018-02-12T12:18:47.518Z,84.60
2018-02-12T12:19:51.682Z,83.80
2018-02-12T12:20:56.234Z,85.00
2018-02-12T12:22:00.672Z,84.00
2018-02-12T12:23:05.166Z,85.00
2018-02-12T12:24:10.160Z,83.10
2018-02-12T12:25:14.368Z,83.10
2018-02-12T12:26:18.559Z,82.70
2018-02-12T12:27:22.746Z,84.10
2018-02-12T12:28:27.408Z,84.60
2018-02-12T12:29:31.654Z,83.70
2018-02-12T12:30:35.874Z,82.00
2018-02-12T12:31:40.830Z,81.80
2018-02-12T12:32:45.770Z,82.70
2018-02-12T12:33:50.391Z,82.60
2018-02-12T12:34:54.608Z,81.80
2018-02-12T12:35:58.871Z,82.50
2018-02-12T12:37:03.641Z,82.80
2018-02-12T12:38:07.847Z,81.80
2018-02-12T12:39:12.041Z,81.50
2018-02-12T12:40:16.987Z,80.40
2018-02-12T12:41:21.156Z,80.40
2018-02-12T12:42:25.919Z,79.80
2018-02-12T12:43:31.131Z,79.30
2018-02-12T12:44:35.365Z,79.30
2018-02-12T12:45:39.591Z,80.90
2018-02-12T12:46:43.783Z,80.80
2018-02-12T12:47:48.022Z,80.20
2018-02-12T12:48:52.191Z,80.30
2018-02-12T12:49:57.033Z,81.20
2018-02-12T12:51:02.212Z,81.70
2018-02-12T12:52:06.743Z,81.70
2018-02-12T12:53:10.971Z,79.10
2018-02-12T12:54:16.101Z,77.50
2018-02-12T12:55:21.058Z,77.30
2018-02-12T12:56:25.487Z,77.30
2018-02-12T12:57:30.062Z,77.50
2018-02-12T12:58:35.026Z,79.10
2018-02-12T12:59:39.261Z,79.10
2018-02-12T13:00:43.462Z,78.90
2018-02-12T13:01:47.628Z,78.40
2018-02-12T13:02:52.552Z,79.20
2018-02-12T13:03:57.596Z,79.50
2018-02-12T13:05:02.699Z,80.50
2018-02-12T13:06:06.891Z,80.50
2018-02-12T13:07:11.119Z,81.80
2018-02-12T13:08:15.278Z,81.30
2018-02-12T13:09:19.451Z,81.90
2018-02-12T13:10:25.054Z,81.80
2018-02-12T13:11:29.263Z,81.80
2018-02-12T13:12:33.530Z,83.60
2018-02-12T13:13:37.856Z,84.60
2018-02-12T13:14:42.035Z,84.50
2018-02-12T13:15:46.252Z,84.60
2018-02-12T13:16:51.200Z,83.00
2018-02-12T13:17:56.552Z,83.40
2018-02-12T13:19:00.972Z,83.50
2018-02-12T13:20:05.570Z,84.00
2018-02-12T13:21:09.770Z,84.20
2018-02-12T13:22:14.736Z,82.80
2018-02-12T13:23:18.958Z,82.80
2018-02-12T13:24:23.240Z,83.40
2018-02-12T13:25:27.789Z,82.20
2018-02-12T13:26:32.140Z,81.50
2018-02-12T13:27:36.324Z,80.40
2018-02-12T13:28:40.507Z,80.40
2018-02-12T13:29:44.737Z,81.30
2018-02-12T13:30:48.965Z,79.90
2018-02-12T13:31:53.267Z,79.80
2018-02-12T13:32:58.609Z,81.40
2018-02-12T13:34:02.855Z,80.60
2018-02-12T13:35:08.289Z,78.90
2018-02-12T13:36:12.484Z,78.80
2018-02-12T13:37:16.687Z,78.30
2018-02-12T13:38:20.856Z,78.00
2018-02-12T13:39:25.341Z,78.40
2018-02-12T13:40:29.996Z,78.50
2018-02-12T13:41:35.159Z,78.30
2018-02-12T13:42:39.449Z,78.30
2018-02-12T13:43:43.639Z,78.20
2018-02-12T13:44:47.807Z,78.30
2018-02-12T13:45:52.002Z,78.40
2018-02-12T13:46:56.257Z,79.10
2018-02-12T13:48:00.961Z,78.70
2018-02-12T13:49:05.948Z,80.10
2018-02-12T13:50:10.119Z,80.00